Portada
METAR-TAF:

METAR-TAF

Aeroports :

Bennettsville, Carolina del Sud, Estats Units d'Amèrica

latitud: 34-37-18N, longitud: 079-44-04W, altitud: 45 m

Observació

L'informe es va fer fa 52 minuts, a les 08:55 UTC
Vent calma
Temperatura 16°C
Humitat 100%
Pressió 1023 hPa
Visibilitat: 16.1 km
Cel clar

METAR: KBBP 020855Z AUTO 00000KT 10SM CLR 16/16 A3021 RMK AO2

Hora: 05:47 (09:47 UTC)


TAF: manca

Observacions i pronòstics meteorològics de més de 4000 aeroports (METAR i TAF).

Les estacions disponibles són els punts grocs i vermells al mapa.

Posi el ratolí al punt desitjat per veure el nom de l'estació.

Feu clic per veure les observacions i els pronòstics meteorològics.

Per canviar el mapa: feu clic els botons verds amb una creu de color negre per apropar; al botó verd amb un guió per allunyar la imatge; o en les fletxes verdes per a mapes adjacents.


METAR-TAF: